sensor_id;sensor_type;location;lat;lon;timestamp;P1;durP1;ratioP1;P2;durP2;ratioP2
71902;SDS011;59778;50.310;18.780;2023-12-20T00:05:15;20.60;;;7.85;;
71902;SDS011;59778;50.310;18.780;2023-12-20T00:20:37;19.60;;;8.00;;
71902;SDS011;59778;50.310;18.780;2023-12-20T00:35:58;21.75;;;8.90;;
71902;SDS011;59778;50.310;18.780;2023-12-20T00:51:20;17.90;;;7.90;;
71902;SDS011;59778;50.310;18.780;2023-12-20T01:06:41;18.10;;;7.10;;
71902;SDS011;59778;50.310;18.780;2023-12-20T01:22:02;12.55;;;5.85;;
71902;SDS011;59778;50.310;18.780;2023-12-20T01:37:24;14.60;;;5.15;;
71902;SDS011;59778;50.310;18.780;2023-12-20T01:52:46;13.20;;;5.10;;
71902;SDS011;59778;50.310;18.780;2023-12-20T02:08:08;17.25;;;6.30;;
71902;SDS011;59778;50.310;18.780;2023-12-20T02:23:29;12.70;;;5.75;;
71902;SDS011;59778;50.310;18.780;2023-12-20T02:38:50;13.85;;;5.75;;
71902;SDS011;59778;50.310;18.780;2023-12-20T02:54:11;16.80;;;6.75;;
71902;SDS011;59778;50.310;18.780;2023-12-20T03:09:33;25.60;;;10.05;;
71902;SDS011;59778;50.310;18.780;2023-12-20T03:24:54;20.65;;;8.60;;
71902;SDS011;59778;50.310;18.780;2023-12-20T03:40:15;22.60;;;10.50;;
71902;SDS011;59778;50.310;18.780;2023-12-20T03:55:36;17.90;;;9.85;;
71902;SDS011;59778;50.310;18.780;2023-12-20T04:10:57;24.45;;;11.15;;
71902;SDS011;59778;50.310;18.780;2023-12-20T04:26:20;19.15;;;10.05;;
71902;SDS011;59778;50.310;18.780;2023-12-20T04:41:41;22.65;;;10.75;;
71902;SDS011;59778;50.310;18.780;2023-12-20T04:57:02;25.20;;;11.20;;
71902;SDS011;59778;50.310;18.780;2023-12-20T05:12:25;24.80;;;12.05;;
71902;SDS011;59778;50.310;18.780;2023-12-20T05:27:47;29.95;;;12.90;;
71902;SDS011;59778;50.310;18.780;2023-12-20T05:43:09;33.75;;;17.40;;
71902;SDS011;59778;50.310;18.780;2023-12-20T05:58:30;43.60;;;17.40;;
71902;SDS011;59778;50.310;18.780;2023-12-20T06:13:51;49.90;;;22.85;;
71902;SDS011;59778;50.310;18.780;2023-12-20T06:29:14;44.70;;;20.05;;
71902;SDS011;59778;50.310;18.780;2023-12-20T06:44:35;56.85;;;23.55;;
71902;SDS011;59778;50.310;18.780;2023-12-20T06:59:58;67.35;;;29.10;;
71902;SDS011;59778;50.310;18.780;2023-12-20T07:15:19;42.75;;;18.05;;
71902;SDS011;59778;50.310;18.780;2023-12-20T07:30:41;48.60;;;22.85;;
71902;SDS011;59778;50.310;18.780;2023-12-20T07:46:10;37.10;;;16.15;;
71902;SDS011;59778;50.310;18.780;2023-12-20T08:01:31;40.40;;;20.05;;
71902;SDS011;59778;50.310;18.780;2023-12-20T08:16:52;42.45;;;20.90;;
71902;SDS011;59778;50.310;18.780;2023-12-20T08:32:13;45.35;;;22.25;;
71902;SDS011;59778;50.310;18.780;2023-12-20T08:47:35;44.20;;;22.20;;
71902;SDS011;59778;50.310;18.780;2023-12-20T09:02:56;26.25;;;12.95;;
71902;SDS011;59778;50.310;18.780;2023-12-20T09:18:17;35.15;;;13.55;;
71902;SDS011;59778;50.310;18.780;2023-12-20T09:33:39;30.35;;;13.50;;
71902;SDS011;59778;50.310;18.780;2023-12-20T09:49:00;33.80;;;14.90;;
71902;SDS011;59778;50.310;18.780;2023-12-20T10:04:22;34.95;;;16.90;;
71902;SDS011;59778;50.310;18.780;2023-12-20T10:19:43;33.35;;;14.45;;
71902;SDS011;59778;50.310;18.780;2023-12-20T10:35:04;28.30;;;13.40;;
71902;SDS011;59778;50.310;18.780;2023-12-20T10:50:26;33.60;;;16.05;;
71902;SDS011;59778;50.310;18.780;2023-12-20T11:05:52;28.80;;;13.00;;
71902;SDS011;59778;50.310;18.780;2023-12-20T11:21:15;31.85;;;14.75;;
71902;SDS011;59778;50.310;18.780;2023-12-20T11:36:36;35.60;;;15.85;;
71902;SDS011;59778;50.310;18.780;2023-12-20T11:52:00;40.20;;;18.50;;
71902;SDS011;59778;50.310;18.780;2023-12-20T12:07:21;26.95;;;13.20;;
71902;SDS011;59778;50.310;18.780;2023-12-20T12:22:43;15.20;;;7.30;;
71902;SDS011;59778;50.310;18.780;2023-12-20T12:38:06;12.70;;;4.95;;
71902;SDS011;59778;50.310;18.780;2023-12-20T12:53:27;29.80;;;12.40;;
71902;SDS011;59778;50.310;18.780;2023-12-20T13:08:49;45.65;;;19.35;;
71902;SDS011;59778;50.310;18.780;2023-12-20T13:24:10;44.05;;;21.60;;
71902;SDS011;59778;50.310;18.780;2023-12-20T13:39:31;39.70;;;18.45;;
71902;SDS011;59778;50.310;18.780;2023-12-20T13:54:53;42.45;;;19.50;;
71902;SDS011;59778;50.310;18.780;2023-12-20T14:10:14;44.80;;;21.55;;
71902;SDS011;59778;50.310;18.780;2023-12-20T14:25:35;31.05;;;13.75;;
71902;SDS011;59778;50.310;18.780;2023-12-20T14:40:59;36.15;;;14.05;;
71902;SDS011;59778;50.310;18.780;2023-12-20T14:56:23;36.55;;;17.40;;
71902;SDS011;59778;50.310;18.780;2023-12-20T15:11:44;42.20;;;16.60;;
71902;SDS011;59778;50.310;18.780;2023-12-20T15:27:06;38.40;;;17.25;;
71902;SDS011;59778;50.310;18.780;2023-12-20T15:42:27;38.95;;;18.15;;
71902;SDS011;59778;50.310;18.780;2023-12-20T15:57:50;34.60;;;16.20;;
71902;SDS011;59778;50.310;18.780;2023-12-20T16:13:11;36.80;;;18.10;;
71902;SDS011;59778;50.310;18.780;2023-12-20T16:28:32;44.70;;;19.85;;
71902;SDS011;59778;50.310;18.780;2023-12-20T16:43:54;35.45;;;15.45;;
71902;SDS011;59778;50.310;18.780;2023-12-20T16:59:15;31.80;;;14.00;;
71902;SDS011;59778;50.310;18.780;2023-12-20T17:14:36;27.50;;;10.65;;
71902;SDS011;59778;50.310;18.780;2023-12-20T17:29:57;25.10;;;9.45;;
71902;SDS011;59778;50.310;18.780;2023-12-20T17:45:21;27.60;;;10.15;;
71902;SDS011;59778;50.310;18.780;2023-12-20T18:00:45;19.75;;;9.45;;
71902;SDS011;59778;50.310;18.780;2023-12-20T18:16:06;18.95;;;7.85;;
71902;SDS011;59778;50.310;18.780;2023-12-20T18:31:30;23.70;;;9.05;;
71902;SDS011;59778;50.310;18.780;2023-12-20T18:46:52;26.45;;;9.40;;
71902;SDS011;59778;50.310;18.780;2023-12-20T19:02:13;21.35;;;7.85;;
71902;SDS011;59778;50.310;18.780;2023-12-20T19:17:34;20.15;;;7.55;;
71902;SDS011;59778;50.310;18.780;2023-12-20T19:32:55;20.35;;;5.50;;
71902;SDS011;59778;50.310;18.780;2023-12-20T19:48:16;18.30;;;7.50;;
71902;SDS011;59778;50.310;18.780;2023-12-20T20:03:38;14.65;;;4.95;;
71902;SDS011;59778;50.310;18.780;2023-12-20T20:18:59;14.95;;;5.00;;
71902;SDS011;59778;50.310;18.780;2023-12-20T20:34:20;13.65;;;4.40;;
71902;SDS011;59778;50.310;18.780;2023-12-20T20:49:45;18.65;;;5.95;;
71902;SDS011;59778;50.310;18.780;2023-12-20T21:05:07;25.80;;;7.15;;
71902;SDS011;59778;50.310;18.780;2023-12-20T21:20:28;29.20;;;9.00;;
71902;SDS011;59778;50.310;18.780;2023-12-20T21:35:49;15.75;;;6.20;;
71902;SDS011;59778;50.310;18.780;2023-12-20T21:51:11;18.45;;;6.00;;
71902;SDS011;59778;50.310;18.780;2023-12-20T22:06:33;16.75;;;5.95;;
71902;SDS011;59778;50.310;18.780;2023-12-20T22:21:54;14.00;;;4.80;;
71902;SDS011;59778;50.310;18.780;2023-12-20T22:37:15;13.60;;;4.60;;
71902;SDS011;59778;50.310;18.780;2023-12-20T22:52:37;17.05;;;6.10;;
71902;SDS011;59778;50.310;18.780;2023-12-20T23:07:58;20.60;;;5.40;;
71902;SDS011;59778;50.310;18.780;2023-12-20T23:23:19;13.05;;;4.45;;
71902;SDS011;59778;50.310;18.780;2023-12-20T23:38:40;14.05;;;4.55;;
71902;SDS011;59778;50.310;18.780;2023-12-20T23:54:02;15.50;;;5.15;;
